Time;durP1;ratioP1;P1;durP2;ratioP2;P2;SDS_P1;SDS_P2;PMS_P1;PMS_P2;Temp;Humidity;BMP_temperature;BMP_pressure;BME280_temperature;BME280_humidity;BME280_pressure;Samples;Min_cycle;Max_cycle;Signal;HPM_P1;HPM_P2
2022/05/17 00:01:17;;;;;;;6.10;3.47;;;;;;;14.81;100.00;98584.31;5102943;28;20710;-73
2022/05/17 00:03:44;;;;;;;4.87;3.23;;;;;;;14.77;100.00;98588.19;5106401;28;20210;-74
2022/05/17 00:06:11;;;;;;;4.83;3.70;;;;;;;14.75;100.00;98584.78;5106977;28;20254;-74
2022/05/17 00:08:39;;;;;;;4.00;3.20;;;;;;;14.74;100.00;98581.28;5102946;28;20210;-74
2022/05/17 00:11:07;;;;;;;5.37;3.10;;;;;;;14.68;100.00;98583.59;5108748;28;20236;-74
2022/05/17 00:13:33;;;;;;;4.07;3.47;;;;;;;14.66;100.00;98581.03;5106304;28;20764;-74
2022/05/17 00:16:01;;;;;;;3.90;3.00;;;;;;;14.61;100.00;98579.72;5106270;28;20213;-74
2022/05/17 00:18:28;;;;;;;3.87;3.33;;;;;;;14.56;100.00;98581.88;5103146;28;20256;-74
2022/05/17 00:20:55;;;;;;;5.13;3.90;;;;;;;14.50;100.00;98579.72;5101091;28;20225;-76
2022/05/17 00:23:21;;;;;;;3.40;3.00;;;;;;;14.45;100.00;98587.19;5105905;28;20214;-73
2022/05/17 00:25:49;;;;;;;4.53;3.23;;;;;;;14.35;100.00;98586.22;5106546;28;20205;-73
2022/05/17 00:28:19;;;;;;;4.33;3.30;;;;;;;14.27;100.00;98589.47;5099380;28;20215;-74
2022/05/17 00:30:46;;;;;;;4.13;3.27;;;;;;;14.20;100.00;98587.38;5107793;28;20221;-73
2022/05/17 00:33:13;;;;;;;4.27;3.30;;;;;;;14.16;100.00;98585.88;5105514;28;20671;-74
2022/05/17 00:35:40;;;;;;;5.30;3.90;;;;;;;14.15;100.00;98584.19;5106397;28;20232;-74
2022/05/17 00:38:07;;;;;;;6.93;3.87;;;;;;;14.17;100.00;98582.28;5102457;28;20329;-73
2022/05/17 00:40:34;;;;;;;5.10;4.00;;;;;;;14.14;100.00;98587.81;5102120;28;20592;-73
2022/05/17 00:43:02;;;;;;;5.17;4.20;;;;;;;14.14;100.00;98585.16;5105106;28;20269;-72
2022/05/17 00:45:28;;;;;;;7.53;3.80;;;;;;;14.11;100.00;98578.28;5106159;28;20218;-73
2022/05/17 00:48:04;;;;;;;4.87;3.80;;;;;;;14.13;100.00;98580.81;5101237;28;20580;-73
2022/05/17 00:50:34;;;;;;;7.83;4.60;;;;;;;14.10;100.00;98581.91;5101094;28;20215;-73
2022/05/17 00:53:05;;;;;;;7.00;3.90;;;;;;;14.10;100.00;98591.66;5102747;28;20222;-73
2022/05/17 00:55:35;;;;;;;4.20;3.80;;;;;;;14.07;100.00;98583.94;5103684;28;20576;-73
2022/05/17 00:58:10;;;;;;;5.13;4.00;;;;;;;14.03;100.00;98585.13;5106273;28;20245;-73
2022/05/17 01:00:43;;;;;;;5.03;4.20;;;;;;;14.02;100.00;98578.13;5106564;28;20209;-73
2022/05/17 01:03:13;;;;;;;5.90;4.23;;;;;;;13.97;100.00;98581.13;5106977;28;20214;-73
2022/05/17 01:05:44;;;;;;;6.10;4.00;;;;;;;13.91;100.00;98580.75;5103045;28;20218;-73
2022/05/17 01:08:13;;;;;;;6.13;4.43;;;;;;;13.80;100.00;98575.38;5103327;28;20222;-73
2022/05/17 01:10:40;;;;;;;8.00;4.63;;;;;;;13.69;100.00;98575.38;5106370;28;20214;-72
2022/05/17 01:15:53;;;;;;;5.40;4.53;;;;;;;13.56;100.00;98579.91;5101648;28;20268;-74
2022/05/17 01:18:20;;;;;;;7.23;4.70;;;;;;;13.56;100.00;98578.06;5103584;28;20711;-73
2022/05/17 01:20:47;;;;;;;5.53;4.57;;;;;;;13.57;100.00;98573.63;5105116;28;20220;-73
2022/05/17 01:23:15;;;;;;;5.40;3.93;;;;;;;13.57;100.00;98570.97;5102883;28;20240;-74
2022/05/17 01:25:41;;;;;;;7.93;5.20;;;;;;;13.53;100.00;98569.47;5104500;28;20221;-73
2022/05/17 01:28:13;;;;;;;6.97;5.10;;;;;;;13.44;100.00;98576.31;5109803;28;20674;-73
2022/05/17 01:30:40;;;;;;;5.23;4.73;;;;;;;13.39;100.00;98588.25;5108634;28;20670;-73
2022/05/17 01:33:13;;;;;;;5.27;4.73;;;;;;;13.30;100.00;98573.84;5102126;28;21341;-73
2022/05/17 01:35:39;;;;;;;5.93;4.40;;;;;;;13.22;100.00;98570.91;5101662;28;20217;-73
2022/05/17 01:38:06;;;;;;;5.20;4.60;;;;;;;13.20;100.00;98569.31;5104633;28;20237;-73
2022/05/17 01:40:34;;;;;;;7.80;4.93;;;;;;;13.22;100.00;98570.91;5103557;28;20220;-73
2022/05/17 01:43:00;;;;;;;7.10;5.47;;;;;;;13.24;100.00;98566.31;5101542;28;20233;-74
2022/05/17 01:45:27;;;;;;;9.87;5.93;;;;;;;13.27;100.00;98567.91;5101156;28;20229;-73
2022/05/17 01:47:55;;;;;;;7.43;5.70;;;;;;;13.28;100.00;98580.22;5103991;28;20218;-73
2022/05/17 01:50:21;;;;;;;8.00;5.83;;;;;;;13.26;100.00;98576.84;5104937;28;20213;-74
2022/05/17 01:52:48;;;;;;;9.23;6.17;;;;;;;13.22;100.00;98570.03;5102029;28;20217;-73
2022/05/17 01:55:15;;;;;;;8.03;5.90;;;;;;;13.23;100.00;98579.69;5101161;28;20559;-73
2022/05/17 01:57:43;;;;;;;7.73;6.20;;;;;;;13.23;100.00;98583.22;5103696;28;20245;-73
2022/05/17 02:00:12;;;;;;;9.13;5.53;;;;;;;13.30;100.00;98581.78;5105108;28;20225;-75
2022/05/17 02:02:39;;;;;;;6.20;5.57;;;;;;;13.31;100.00;98582.63;5101087;28;20214;-74
2022/05/17 02:05:07;;;;;;;7.30;5.57;;;;;;;13.26;100.00;98582.97;5099338;28;20581;-73
2022/05/17 02:07:33;;;;;;;8.33;6.50;;;;;;;13.25;100.00;98575.09;5103529;28;20221;-73
2022/05/17 02:10:00;;;;;;;6.43;5.37;;;;;;;13.11;100.00;98578.78;5104795;28;20213;-74
2022/05/17 02:12:26;;;;;;;7.17;5.83;;;;;;;12.93;100.00;98571.25;5101925;28;20221;-73
2022/05/17 02:14:54;;;;;;;5.43;4.90;;;;;;;12.77;100.00;98575.97;5100992;28;20206;-73
2022/05/17 02:17:21;;;;;;;7.27;5.40;;;;;;;12.66;100.00;98575.88;5103338;28;20308;-72
2022/05/17 02:19:47;;;;;;;6.00;4.73;;;;;;;12.63;100.00;98568.13;5104809;28;20246;-74
2022/05/17 02:22:14;;;;;;;5.73;5.13;;;;;;;12.63;100.00;98573.44;5102258;28;20212;-74
2022/05/17 02:24:40;;;;;;;6.77;5.53;;;;;;;12.62;100.00;98574.38;5100618;28;20733;-73
2022/05/17 02:27:07;;;;;;;7.50;5.73;;;;;;;12.62;100.00;98574.38;5102068;28;20221;-73
2022/05/17 02:29:33;;;;;;;6.07;5.40;;;;;;;12.63;100.00;98576.06;5107218;28;20213;-73
2022/05/17 02:32:01;;;;;;;7.60;5.87;;;;;;;12.66;100.00;98581.19;5101108;28;20224;-73
2022/05/17 02:34:28;;;;;;;7.93;6.13;;;;;;;12.66;100.00;98581.19;5100595;28;20699;-73
2022/05/17 02:36:54;;;;;;;8.63;6.80;;;;;;;12.68;100.00;98573.97;5102089;28;20242;-73
2022/05/17 02:39:20;;;;;;;8.43;6.43;;;;;;;12.68;100.00;98573.97;5104313;28;20226;-73
2022/05/17 02:41:47;;;;;;;7.53;6.10;;;;;;;12.66;100.00;98579.34;5105947;28;20205;-73
2022/05/17 02:44:14;;;;;;;8.60;6.50;;;;;;;12.67;100.00;98582.88;5100497;28;20746;-73
2022/05/17 02:46:41;;;;;;;8.57;6.67;;;;;;;12.62;100.00;98585.84;5101645;28;20244;-73
2022/05/17 02:49:09;;;;;;;7.43;6.53;;;;;;;12.59;100.00;98585.22;5104523;28;20582;-73
2022/05/17 02:51:36;;;;;;;8.97;6.40;;;;;;;12.55;100.00;98589.91;5103050;28;20222;-74
2022/05/17 02:54:05;;;;;;;9.40;7.07;;;;;;;12.55;100.00;98594.34;5100382;28;20217;-73
2022/05/17 02:56:31;;;;;;;12.57;6.50;;;;;;;12.49;100.00;98598.28;5101727;28;20216;-73
2022/05/17 02:58:58;;;;;;;6.70;5.80;;;;;;;12.50;100.00;98592.03;5102771;28;20237;-73
2022/05/17 03:01:24;;;;;;;9.30;6.00;;;;;;;12.43;100.00;98597.84;5102823;28;20213;-73
2022/05/17 03:03:51;;;;;;;7.70;5.90;;;;;;;12.41;100.00;98602.41;5100447;28;20214;-74
2022/05/17 03:06:19;;;;;;;8.57;5.47;;;;;;;12.40;100.00;98598.91;5101118;28;20207;-73
2022/05/17 03:08:45;;;;;;;8.00;6.60;;;;;;;12.45;100.00;98603.88;5104159;28;20224;-73
2022/05/17 03:11:11;;;;;;;9.13;5.57;;;;;;;12.44;100.00;98603.03;5103564;28;20218;-73
2022/05/17 03:13:38;;;;;;;8.57;6.20;;;;;;;12.43;100.00;98609.31;5100645;28;20213;-72
2022/05/17 03:16:05;;;;;;;9.77;7.20;;;;;;;12.45;100.00;98604.75;5104030;28;20821;-73
2022/05/17 03:18:31;;;;;;;8.37;7.30;;;;;;;12.43;100.00;98616.41;5107802;28;20234;-73
2022/05/17 03:20:58;;;;;;;9.57;7.30;;;;;;;12.42;100.00;98620.00;5107310;28;20225;-73
2022/05/17 03:23:26;;;;;;;11.07;8.23;;;;;;;12.41;100.00;98623.63;5102859;28;20218;-73
2022/05/17 03:25:52;;;;;;;9.47;6.87;;;;;;;12.44;100.00;98618.09;5103512;28;20222;-74
2022/05/17 03:28:19;;;;;;;11.50;8.17;;;;;;;12.44;100.00;98618.09;5101728;28;20221;-73
2022/05/17 03:30:45;;;;;;;12.63;8.67;;;;;;;12.44;100.00;98612.78;5107263;28;20696;-73
2022/05/17 03:33:12;;;;;;;10.33;8.17;;;;;;;12.41;100.00;98615.66;5103726;28;20218;-73
2022/05/17 03:35:38;;;;;;;12.30;7.90;;;;;;;12.42;100.00;98620.00;5103727;28;20218;-73
2022/05/17 03:38:05;;;;;;;11.57;8.80;;;;;;;12.45;100.00;98622.44;5106935;28;20290;-72
2022/05/17 03:40:33;;;;;;;10.13;8.03;;;;;;;12.45;100.00;98625.09;5107148;28;20671;-74
2022/05/17 03:42:59;;;;;;;13.70;9.77;;;;;;;12.42;100.00;98625.31;5103445;28;20255;-74
2022/05/17 03:45:26;;;;;;;12.20;8.50;;;;;;;12.39;100.00;98626.38;5103486;28;20214;-73
2022/05/17 03:47:52;;;;;;;9.90;8.13;;;;;;;12.41;100.00;98635.06;5106352;28;20592;-73
2022/05/17 03:50:19;;;;;;;11.50;8.70;;;;;;;12.43;100.00;98627.00;5105837;28;20245;-73
2022/05/17 03:52:45;;;;;;;12.77;9.10;;;;;;;12.50;100.00;98633.56;5103756;28;20229;-75
2022/05/17 03:55:12;;;;;;;10.77;8.10;;;;;;;12.50;100.00;98634.44;5103041;28;20217;-73
2022/05/17 03:57:40;;;;;;;12.10;8.43;;;;;;;12.48;100.00;98638.16;5106668;28;20238;-74
2022/05/17 04:00:10;;;;;;;10.93;8.70;;;;;;;12.49;100.00;98642.50;5106814;28;20694;-73
2022/05/17 04:02:37;;;;;;;11.97;8.60;;;;;;;12.46;100.00;98640.06;5103909;28;20222;-73
2022/05/17 04:05:04;;;;;;;10.20;9.00;;;;;;;12.47;100.00;98645.25;5102801;28;20267;-73
2022/05/17 04:07:31;;;;;;;8.60;7.67;;;;;;;12.48;100.00;98654.06;5105675;28;20214;-74
2022/05/17 04:09:57;;;;;;;10.27;8.30;;;;;;;12.50;100.00;98654.78;5106853;28;20232;-73
2022/05/17 04:12:24;;;;;;;9.90;7.57;;;;;;;12.50;100.00;98649.47;5103688;28;20228;-73
2022/05/17 04:14:53;;;;;;;9.43;7.43;;;;;;;12.52;100.00;98651.09;5102632;28;20213;-74
2022/05/17 04:17:20;;;;;;;7.63;6.30;;;;;;;12.56;100.00;98654.38;5103544;28;20232;-73
2022/05/17 04:19:46;;;;;;;8.33;7.30;;;;;;;12.60;100.00;98653.22;5106528;28;20214;-74
2022/05/17 04:22:13;;;;;;;9.50;7.03;;;;;;;12.64;100.00;98659.97;5103849;28;20217;-73
2022/05/17 04:24:41;;;;;;;8.77;7.00;;;;;;;12.69;100.00;98666.69;5102252;28;20212;-73
2022/05/17 04:27:08;;;;;;;8.93;7.03;;;;;;;12.73;100.00;98672.63;5104142;28;20694;-74
2022/05/17 04:29:34;;;;;;;9.10;7.07;;;;;;;12.76;100.00;98672.38;5109310;28;20217;-73
2022/05/17 04:32:02;;;;;;;7.97;6.97;;;;;;;12.82;100.00;98672.84;5104320;28;20217;-73
2022/05/17 04:34:28;;;;;;;8.90;7.63;;;;;;;12.95;100.00;98675.50;5102515;28;20210;-73
2022/05/17 04:36:55;;;;;;;13.40;8.13;;;;;;;13.23;100.00;98669.94;5104319;28;20209;-73
2022/05/17 04:39:22;;;;;;;8.67;7.30;;;;;;;13.34;100.00;98670.03;5106233;28;20237;-73
2022/05/17 04:41:49;;;;;;;10.63;7.20;;;;;;;13.34;100.00;98680.66;5104212;28;20343;-73
2022/05/17 04:44:16;;;;;;;9.80;7.63;;;;;;;13.38;100.00;98679.47;5100819;28;20242;-73
2022/05/17 04:46:42;;;;;;;9.70;8.00;;;;;;;13.47;100.00;98681.47;5103858;28;20213;-73
2022/05/17 04:49:10;;;;;;;10.53;7.27;;;;;;;13.51;100.00;98682.94;5106296;28;20578;-73
2022/05/17 04:51:36;;;;;;;11.20;6.80;;;;;;;13.60;100.00;98687.56;5104262;28;20247;-73
2022/05/17 04:54:04;;;;;;;10.73;7.17;;;;;;;13.68;100.00;98680.75;5102230;28;20218;-73
2022/05/17 04:56:30;;;;;;;8.87;7.33;;;;;;;13.79;100.00;98682.63;5103350;28;20217;-73
2022/05/17 04:58:57;;;;;;;9.30;7.30;;;;;;;13.88;100.00;98682.78;5105795;28;20241;-73
2022/05/17 05:01:24;;;;;;;9.13;7.10;;;;;;;14.02;100.00;98685.28;5104190;28;20221;-73
2022/05/17 05:03:50;;;;;;;10.97;6.90;;;;;;;14.13;100.00;98687.97;5101736;28;20221;-74
2022/05/17 05:06:18;;;;;;;9.07;7.27;;;;;;;14.24;100.00;98684.56;5102546;28;20687;-74
2022/05/17 05:08:46;;;;;;;10.40;6.93;;;;;;;14.41;100.00;98684.13;5104037;28;20217;-73
2022/05/17 05:11:13;;;;;;;8.97;7.00;;;;;;;14.58;100.00;98692.53;5105848;28;20210;-73
2022/05/17 05:13:40;;;;;;;9.37;7.00;;;;;;;14.80;100.00;98683.75;5105955;28;20263;-74
2022/05/17 05:16:11;;;;;;;8.60;6.23;;;;;;;15.12;100.00;98684.75;5105192;28;20211;-74
2022/05/17 05:18:37;;;;;;;9.17;6.40;;;;;;;15.84;100.00;98689.53;5102073;28;20233;-73
2022/05/17 05:21:06;;;;;;;9.40;6.20;;;;;;;16.60;100.00;98697.28;5103335;28;20245;-73
2022/05/17 05:23:33;;;;;;;8.93;6.13;;;;;;;17.29;100.00;98688.53;5105723;28;20215;-72
2022/05/17 05:26:00;;;;;;;6.20;5.50;;;;;;;18.09;100.00;98687.50;5104762;28;20214;-72
2022/05/17 05:28:26;;;;;;;10.67;6.33;;;;;;;18.94;92.56;98692.00;5101135;28;20217;-73
2022/05/17 05:30:54;;;;;;;7.30;5.63;;;;;;;19.65;86.70;98694.03;5103938;28;20213;-72
2022/05/17 05:33:20;;;;;;;9.27;5.93;;;;;;;20.33;82.51;98701.53;5101655;28;20214;-72
2022/05/17 05:35:47;;;;;;;6.87;5.40;;;;;;;20.93;79.64;98698.06;5100657;28;20577;-72
2022/05/17 05:38:13;;;;;;;6.30;4.83;;;;;;;21.50;76.18;98699.25;5104714;28;20329;-72
2022/05/17 05:40:41;;;;;;;9.53;5.50;;;;;;;21.97;72.48;98698.66;5104333;28;20218;-73
2022/05/17 05:43:08;;;;;;;5.30;4.60;;;;;;;22.37;72.32;98689.84;5101324;28;20244;-73
2022/05/17 05:45:35;;;;;;;8.53;5.90;;;;;;;22.71;67.31;98699.50;5101439;28;20225;-74
2022/05/17 05:48:01;;;;;;;7.27;5.57;;;;;;;23.09;65.85;98698.78;5104890;28;20214;-73
2022/05/17 05:50:28;;;;;;;5.90;5.30;;;;;;;23.46;64.33;98701.78;5104231;28;20731;-71
2022/05/17 05:53:00;;;;;;;7.63;5.83;;;;;;;23.72;62.58;98706.94;5101199;28;20217;-70
2022/05/17 05:55:27;;;;;;;7.60;5.40;;;;;;;24.07;62.37;98709.19;5101958;28;20214;-73
2022/05/17 05:57:55;;;;;;;6.33;5.27;;;;;;;24.29;60.72;98703.81;5101618;28;20261;-72
2022/05/17 06:00:22;;;;;;;5.57;4.70;;;;;;;24.60;60.85;98706.50;5102571;28;20870;-73
2022/05/17 06:02:49;;;;;;;8.33;5.33;;;;;;;24.95;58.92;98717.56;5098452;28;20211;-76
2022/05/17 06:05:16;;;;;;;7.83;5.43;;;;;;;25.13;57.36;98717.22;5099900;28;20211;-74
2022/05/17 06:07:43;;;;;;;7.70;5.37;;;;;;;25.33;56.36;98713.84;5101544;28;20221;-77
2022/05/17 06:10:11;;;;;;;8.07;4.90;;;;;;;25.30;56.20;98725.03;5098519;28;20433;-73
2022/05/17 06:12:37;;;;;;;7.77;5.27;;;;;;;24.96;57.00;98721.94;5097911;28;20219;-74
2022/05/17 06:15:07;;;;;;;9.43;5.57;;;;;;;24.88;58.07;98726.56;5100603;28;20210;-74
2022/05/17 06:17:34;;;;;;;6.70;4.60;;;;;;;25.01;58.13;98721.38;5097045;28;20224;-74
2022/05/17 06:20:01;;;;;;;7.70;5.37;;;;;;;25.34;57.39;98720.94;5096918;28;20238;-74
2022/05/17 06:22:28;;;;;;;8.00;4.80;;;;;;;25.57;56.46;98726.28;5097663;28;20225;-73
2022/05/17 06:24:55;;;;;;;5.90;4.87;;;;;;;25.66;56.01;98719.75;5100438;28;20218;-73
2022/05/17 06:27:21;;;;;;;7.17;5.23;;;;;;;25.68;55.85;98720.41;5097482;28;20759;-73
2022/05/17 06:29:48;;;;;;;5.90;4.70;;;;;;;25.56;55.96;98725.44;5108807;28;20709;-73
2022/05/17 06:32:17;;;;;;;6.10;4.70;;;;;;;25.31;56.04;98720.47;5101139;28;20215;-75
2022/05/17 06:34:45;;;;;;;6.50;4.93;;;;;;;25.45;56.10;98722.34;5100855;28;20205;-73
2022/05/17 06:37:12;;;;;;;5.70;4.20;;;;;;;25.53;56.54;98714.97;5097267;28;20230;-74
2022/05/17 06:39:39;;;;;;;6.13;4.37;;;;;;;25.50;56.19;98718.06;5097124;28;20261;-73
2022/05/17 06:42:07;;;;;;;6.97;5.27;;;;;;;25.51;56.11;98722.47;5097632;28;20222;-73
2022/05/17 06:44:34;;;;;;;7.03;4.30;;;;;;;25.60;56.36;98721.31;5100667;28;20711;-73
2022/05/17 06:47:01;;;;;;;7.10;4.30;;;;;;;25.57;56.23;98721.72;5097090;28;20284;-74
2022/05/17 06:49:29;;;;;;;5.67;4.17;;;;;;;25.07;57.85;98729.63;5100725;28;20219;-74
2022/05/17 06:51:57;;;;;;;6.17;4.93;;;;;;;24.33;60.38;98720.50;5101324;28;20215;-74
2022/05/17 06:54:23;;;;;;;7.40;4.83;;;;;;;23.29;64.71;98720.88;5102815;28;20619;-74
2022/05/17 06:56:50;;;;;;;5.00;4.40;;;;;;;22.55;68.41;98721.03;5100518;28;20214;-74
2022/05/17 06:59:18;;;;;;;5.80;4.60;;;;;;;22.12;71.79;98723.94;5100791;28;20246;-74
2022/05/17 07:01:44;;;;;;;5.57;4.70;;;;;;;21.81;73.58;98719.25;5100768;28;20226;-74
2022/05/17 07:04:13;;;;;;;6.90;4.70;;;;;;;21.56;74.60;98731.75;5104495;28;20586;-74
2022/05/17 07:06:41;;;;;;;6.53;5.03;;;;;;;21.43;75.90;98734.03;5100403;28;20215;-74
2022/05/17 07:09:08;;;;;;;5.73;4.93;;;;;;;21.30;76.56;98733.59;5100654;28;20210;-74
2022/05/17 07:14:19;;;;;;;5.43;4.50;;;;;;;21.27;77.58;98731.22;5101616;28;20220;-76
2022/05/17 07:16:45;;;;;;;7.10;4.77;;;;;;;21.29;79.36;98737.31;5100727;28;20218;-74
2022/05/17 07:19:12;;;;;;;7.00;4.70;;;;;;;21.27;79.18;98739.28;5100461;28;20251;-75
2022/05/17 07:21:38;;;;;;;5.50;4.87;;;;;;;21.29;79.65;98731.94;5100820;28;20214;-75
2022/05/17 07:24:07;;;;;;;7.47;5.23;;;;;;;21.35;80.20;98727.75;5114227;28;20206;-74
2022/05/17 07:26:33;;;;;;;7.13;5.43;;;;;;;21.38;80.08;98738.19;5100132;28;20222;-74
2022/05/17 07:28:59;;;;;;;6.00;4.93;;;;;;;21.35;80.06;98733.97;5107243;28;20217;-74
2022/05/17 07:31:26;;;;;;;6.00;4.97;;;;;;;21.34;77.13;98734.13;5104114;28;20214;-74
2022/05/17 07:33:52;;;;;;;7.83;5.40;;;;;;;21.39;77.28;98729.94;5102604;28;20237;-73
2022/05/17 07:36:19;;;;;;;5.90;5.00;;;;;;;21.43;76.60;98736.72;5100216;28;20219;-74
2022/05/17 07:38:47;;;;;;;6.90;4.93;;;;;;;21.47;78.83;98737.22;5099942;28;20239;-74
2022/05/17 07:41:15;;;;;;;6.07;4.63;;;;;;;21.57;79.53;98733.41;5101452;28;20592;-73
2022/05/17 07:43:41;;;;;;;6.83;4.90;;;;;;;21.63;79.21;98724.72;5102335;28;20237;-74
2022/05/17 07:46:07;;;;;;;6.53;5.20;;;;;;;21.70;77.10;98725.78;5098150;28;20218;-73
2022/05/17 07:48:34;;;;;;;9.50;5.03;;;;;;;21.79;75.49;98727.53;5107861;28;20311;-75
2022/05/17 07:51:00;;;;;;;5.53;4.20;;;;;;;21.87;74.28;98726.69;5109112;28;20245;-74
2022/05/17 07:53:27;;;;;;;4.57;3.60;;;;;;;21.92;73.41;98727.91;5107159;28;20606;-74
2022/05/17 07:55:54;;;;;;;4.87;4.33;;;;;;;22.05;75.53;98724.75;5109808;28;20220;-73
2022/05/17 07:58:21;;;;;;;4.60;4.13;;;;;;;22.06;71.93;98729.16;5109662;28;20221;-73
2022/05/17 08:00:49;;;;;;;4.60;3.90;;;;;;;22.06;72.07;98724.59;5108534;28;20210;-73
2022/05/17 08:03:16;;;;;;;6.07;3.87;;;;;;;22.18;72.70;98723.28;5106350;28;20680;-73
2022/05/17 08:05:43;;;;;;;6.17;4.00;;;;;;;22.25;69.87;98732.38;5109850;28;20226;-73
2022/05/17 08:08:10;;;;;;;4.37;3.80;;;;;;;22.31;70.66;98729.03;5109969;28;20210;-76
2022/05/17 08:10:37;;;;;;;4.70;4.00;;;;;;;22.41;69.65;98721.66;5109208;28;20214;-73
2022/05/17 08:13:03;;;;;;;4.70;3.90;;;;;;;22.39;69.65;98728.22;5104537;28;20210;-74
2022/05/17 08:15:32;;;;;;;5.07;3.57;;;;;;;22.47;69.40;98729.09;5109385;28;20679;-75
2022/05/17 08:17:59;;;;;;;4.57;3.57;;;;;;;22.49;65.41;98732.47;5109671;28;20214;-75
2022/05/17 08:20:25;;;;;;;4.90;3.53;;;;;;;22.50;67.68;98727.94;5109200;28;20238;-75
2022/05/17 08:22:52;;;;;;;4.73;3.40;;;;;;;22.50;64.11;98730.63;5105635;28;20684;-73
2022/05/17 08:28:06;;;;;;;5.60;3.60;;;;;;;22.64;65.19;98722.72;5100989;28;20298;-74
2022/05/17 08:30:35;;;;;;;8.87;3.67;;;;;;;22.77;64.76;98725.78;5109989;28;20217;-74
2022/05/17 08:33:17;;;;;;;5.10;3.03;;;;;;;22.91;64.73;98727.78;5108399;28;20222;-74
2022/05/17 08:35:47;;;;;;;6.40;3.40;;;;;;;23.05;63.66;98718.19;5109188;28;20301;-74
2022/05/17 08:38:16;;;;;;;4.70;3.27;;;;;;;23.08;60.29;98718.69;5108889;28;20214;-74
2022/05/17 08:40:53;;;;;;;3.93;2.53;;;;;;;23.24;60.48;98718.72;5098297;28;20238;-74
2022/05/17 08:43:26;;;;;;;4.23;2.97;;;;;;;23.38;60.70;98726.09;5097332;28;20242;-74
2022/05/17 08:46:04;;;;;;;4.90;2.73;;;;;;;23.46;57.54;98717.16;5097401;28;20215;-74
2022/05/17 08:48:39;;;;;;;3.23;2.60;;;;;;;23.60;60.42;98709.16;5105963;28;20250;-74
2022/05/17 08:51:06;;;;;;;4.93;2.63;;;;;;;23.60;55.14;98709.16;5108771;28;20647;-74
2022/05/17 08:53:33;;;;;;;3.63;2.70;;;;;;;23.37;54.56;98710.91;5108813;28;20206;-74
2022/05/17 08:56:00;;;;;;;5.50;2.90;;;;;;;23.29;55.44;98707.41;5107005;28;20223;-73
2022/05/17 08:58:29;;;;;;;5.43;2.93;;;;;;;23.35;55.76;98704.84;5106420;28;20211;-74
2022/05/17 09:01:01;;;;;;;3.00;2.67;;;;;;;23.26;57.39;98707.72;5108978;28;20218;-74
2022/05/17 09:03:44;;;;;;;2.50;2.30;;;;;;;23.47;56.67;98710.72;5108849;28;20222;-73
2022/05/17 09:06:18;;;;;;;3.13;2.30;;;;;;;23.64;53.73;98705.09;5103581;28;20241;-73
2022/05/17 09:08:51;;;;;;;4.57;2.70;;;;;;;23.84;52.52;98705.53;5108706;28;20233;-73
2022/05/17 09:11:24;;;;;;;3.90;2.40;;;;;;;23.98;51.12;98702.13;5107710;28;20214;-74
2022/05/17 09:13:55;;;;;;;4.13;2.30;;;;;;;23.96;50.61;98710.41;5096386;28;20219;-73
2022/05/17 09:16:26;;;;;;;3.40;2.07;;;;;;;24.17;51.40;98699.84;5108459;28;20213;-74
2022/05/17 09:18:53;;;;;;;5.70;3.97;;;;;;;24.35;50.82;98699.53;5108234;28;20233;-73
2022/05/17 09:21:28;;;;;;;3.20;2.50;;;;;;;24.57;52.30;98694.19;5107844;28;20675;-73
2022/05/17 09:23:57;;;;;;;4.13;2.60;;;;;;;24.80;54.57;98705.84;5105246;28;20214;-74
2022/05/17 09:26:24;;;;;;;2.70;2.30;;;;;;;24.80;49.24;98700.44;5108079;28;20679;-74
2022/05/17 09:28:54;;;;;;;3.40;2.73;;;;;;;24.66;52.09;98703.94;5111358;28;20581;-74
2022/05/17 09:31:29;;;;;;;3.83;2.80;;;;;;;24.88;53.73;98707.66;5107018;28;20210;-74
2022/05/17 09:33:59;;;;;;;4.23;2.37;;;;;;;25.01;50.46;98703.31;5105146;28;20257;-74
2022/05/17 09:36:32;;;;;;;4.07;2.40;;;;;;;25.12;50.33;98710.97;5108067;28;20222;-73
2022/05/17 09:39:00;;;;;;;3.00;2.23;;;;;;;25.28;50.53;98716.25;5108041;28;20234;-73
2022/05/17 09:41:34;;;;;;;3.80;2.20;;;;;;;25.27;48.40;98702.91;5104456;28;20254;-73
2022/05/17 09:44:04;;;;;;;4.93;2.57;;;;;;;25.20;48.13;98704.63;5096411;28;20238;-73
2022/05/17 09:46:34;;;;;;;2.57;2.37;;;;;;;25.02;48.68;98705.00;5096449;28;20244;-73
2022/05/17 09:54:43;;;;;;;3.50;2.30;;;;;;;25.01;50.58;98703.31;5110376;28;20816;-76
2022/05/17 09:57:15;;;;;;;3.73;2.40;;;;;;;25.13;50.05;98701.84;5103309;28;20291;-73
2022/05/17 09:59:41;;;;;;;5.23;2.73;;;;;;;25.23;49.33;98699.69;5106428;28;20230;-73
2022/05/17 10:02:32;;;;;;;3.70;2.60;;;;;;;25.36;50.71;98702.63;5099550;28;20210;-73
2022/05/17 10:05:00;;;;;;;4.73;2.67;;;;;;;25.44;49.52;98689.03;5102521;28;20295;-73
2022/05/17 10:07:30;;;;;;;3.60;2.57;;;;;;;25.33;47.64;98703.03;5100472;28;20223;-73
2022/05/17 10:09:57;;;;;;;5.13;2.60;;;;;;;25.36;50.20;98702.63;5099150;28;20692;-73
2022/05/17 10:12:34;;;;;;;3.50;2.63;;;;;;;25.34;48.54;98688.47;5102012;28;20241;-74
2022/05/17 10:15:06;;;;;;;3.57;2.67;;;;;;;25.23;49.34;98697.00;5108048;28;20218;-74
2022/05/17 10:17:38;;;;;;;6.47;3.23;;;;;;;25.16;48.73;98696.06;5099427;28;20222;-74
2022/05/17 10:20:11;;;;;;;3.47;2.63;;;;;;;25.07;49.38;98694.47;5100616;28;20238;-73
2022/05/17 10:22:45;;;;;;;4.50;3.40;;;;;;;25.13;49.42;98696.44;5103578;28;20622;-74
2022/05/17 10:25:21;;;;;;;3.43;2.80;;;;;;;25.10;48.46;98691.38;5103578;28;20216;-74
2022/05/17 10:27:51;;;;;;;4.77;3.30;;;;;;;25.25;50.82;98686.88;5108755;28;20210;-73
2022/05/17 10:30:21;;;;;;;4.93;3.20;;;;;;;25.18;48.76;98683.16;5104178;28;20672;-74
2022/05/17 10:32:57;;;;;;;5.27;3.13;;;;;;;25.11;49.60;98684.94;5105965;28;20214;-73
2022/05/17 10:35:31;;;;;;;4.87;3.03;;;;;;;25.29;51.55;98680.06;5103244;28;20210;-73
2022/05/17 10:38:00;;;;;;;4.77;3.10;;;;;;;25.52;53.11;98678.13;5105881;28;20695;-73
2022/05/17 10:40:30;;;;;;;3.03;2.70;;;;;;;25.66;51.54;98669.13;5106889;28;20343;-73
2022/05/17 10:42:58;;;;;;;3.70;2.80;;;;;;;25.73;48.89;98670.06;5106914;28;20234;-73
2022/05/17 10:45:32;;;;;;;4.33;3.00;;;;;;;25.69;46.71;98673.34;5107458;28;20218;-73
2022/05/17 10:48:11;;;;;;;5.03;3.07;;;;;;;25.67;48.15;98670.81;5103858;28;20245;-73
2022/05/17 10:50:50;;;;;;;4.57;3.17;;;;;;;25.79;49.38;98666.59;5104493;28;20231;-73
2022/05/17 10:53:38;;;;;;;3.73;2.70;;;;;;;25.61;48.45;98660.72;5101187;28;20664;-73
2022/05/17 10:56:14;;;;;;;5.53;3.70;;;;;;;25.57;48.34;98662.16;5105773;28;20232;-75
2022/05/17 10:58:50;;;;;;;5.93;3.67;;;;;;;25.34;48.33;98661.41;5106544;28;20214;-73
2022/05/17 11:01:24;;;;;;;4.90;3.60;;;;;;;25.24;50.67;98660.81;5106027;28;20246;-73
2022/05/17 11:04:17;;;;;;;4.13;3.43;;;;;;;25.35;50.08;98651.44;5113781;28;20214;-74
2022/05/17 11:06:53;;;;;;;5.70;3.40;;;;;;;25.52;49.38;98653.75;5108150;28;20218;-73
2022/05/17 11:09:26;;;;;;;6.30;3.83;;;;;;;25.33;48.07;98648.91;5113177;28;20205;-73
2022/05/17 11:12:05;;;;;;;6.93;3.20;;;;;;;25.23;50.47;98645.59;5106393;28;20210;-73
2022/05/17 11:14:40;;;;;;;5.23;3.17;;;;;;;25.40;48.92;98649.81;5107018;28;20217;-74
2022/05/17 11:17:14;;;;;;;4.13;3.07;;;;;;;25.34;47.39;98645.16;5105968;28;20221;-74
2022/05/17 11:19:47;;;;;;;4.97;3.43;;;;;;;25.31;48.49;98637.41;5104068;28;20245;-73
2022/05/17 11:22:19;;;;;;;4.80;3.30;;;;;;;25.44;48.67;98645.72;5103015;28;20214;-73
2022/05/17 11:25:08;;;;;;;3.40;3.10;;;;;;;25.49;47.24;98639.75;5102063;28;20207;-74
2022/05/17 11:28:00;;;;;;;3.07;2.77;;;;;;;25.52;47.47;98636.66;5102160;28;20215;-74
2022/05/17 11:30:31;;;;;;;4.37;2.73;;;;;;;25.43;48.48;98626.97;5108259;28;20676;-74
2022/05/17 11:33:12;;;;;;;4.33;3.23;;;;;;;25.51;45.88;98637.69;5105888;28;20206;-74
2022/05/17 11:35:55;;;;;;;3.93;2.87;;;;;;;25.13;46.01;98639.63;5110031;28;20217;-74
2022/05/17 11:38:45;;;;;;;4.30;3.10;;;;;;;24.75;47.63;98632.53;5098647;28;20222;-74
2022/05/17 11:41:16;;;;;;;4.43;3.10;;;;;;;24.75;47.15;98635.25;5103825;28;20328;-74
2022/05/17 11:43:46;;;;;;;5.23;3.07;;;;;;;24.79;49.76;98633.84;5103351;28;20249;-74
2022/05/17 11:46:40;;;;;;;5.20;3.10;;;;;;;25.04;46.56;98627.19;5100405;28;20234;-74
2022/05/17 11:49:25;;;;;;;6.37;3.17;;;;;;;24.99;46.06;98624.19;5104126;28;20289;-74
2022/05/17 11:52:21;;;;;;;4.53;2.43;;;;;;;25.10;45.52;98617.47;5106145;28;20561;-74